createdAt,value
2022-08-25T00:00:22.017Z,97972.75
2022-08-25T00:03:42.842Z,97967.41
2022-08-25T00:06:49.675Z,97963.97
2022-08-25T00:09:55.738Z,97958.16
2022-08-25T00:13:00.447Z,97959.78
2022-08-25T00:16:05.009Z,97956.31
2022-08-25T00:19:16.330Z,97960.22
2022-08-25T00:22:21.264Z,97955.22
2022-08-25T00:25:30.416Z,97953.03
2022-08-25T00:28:36.634Z,97954.09
2022-08-25T00:31:43.578Z,97954.63
2022-08-25T00:34:48.298Z,97954.78
2022-08-25T00:37:52.431Z,97950.34
2022-08-25T00:41:07.132Z,97937.56
2022-08-25T00:44:14.449Z,97946.53
2022-08-25T00:47:21.918Z,97928.31
2022-08-25T00:50:29.293Z,97931.88
2022-08-25T00:53:34.010Z,97929.13
2022-08-25T00:56:40.713Z,97938.88
2022-08-25T00:59:45.559Z,97940.69
2022-08-25T01:02:50.767Z,97931.38
2022-08-25T01:05:56.253Z,97932.72
2022-08-25T01:09:01.516Z,97949.88
2022-08-25T01:12:08.926Z,97933.81
2022-08-25T01:15:16.748Z,97930.81
2022-08-25T01:18:21.200Z,97938.25
2022-08-25T01:21:28.831Z,97945.16
2022-08-25T01:24:38.061Z,97949.41
2022-08-25T01:27:45.304Z,97956.31
2022-08-25T01:30:52.761Z,97959.34
2022-08-25T01:33:57.517Z,97942.66
2022-08-25T01:37:04.459Z,97946.66
2022-08-25T01:40:10.387Z,97951.88
2022-08-25T01:43:22.539Z,97956.53
2022-08-25T01:46:27.688Z,97954.72
2022-08-25T01:49:31.714Z,97957.38
2022-08-25T01:52:52.331Z,97962.59
2022-08-25T01:56:02.714Z,97967.63
2022-08-25T01:59:08.253Z,97967.88
2022-08-25T02:02:13.103Z,97961.56
2022-08-25T02:05:23.467Z,97967.13
2022-08-25T02:08:31.346Z,97964.19
2022-08-25T02:11:38.006Z,97964.78
2022-08-25T02:14:41.595Z,97955.16
2022-08-25T02:17:46.569Z,97962.81
2022-08-25T02:20:51.346Z,97954.41
2022-08-25T02:23:58.475Z,97958.16
2022-08-25T02:27:04.437Z,97953.69
2022-08-25T02:30:20.718Z,97959.47
2022-08-25T02:33:24.907Z,97954.16
2022-08-25T02:36:30.909Z,97954.63
2022-08-25T02:39:36.847Z,97949.88
2022-08-25T02:42:42.741Z,97960.50
2022-08-25T02:45:47.214Z,97960.28
2022-08-25T02:48:53.418Z,97962.41
2022-08-25T02:51:58.950Z,97961.69
2022-08-25T02:55:09.139Z,97955.81
2022-08-25T02:58:12.752Z,97951.94
2022-08-25T03:01:20.573Z,97958.03
2022-08-25T03:04:26.090Z,97954.88
2022-08-25T03:07:31.548Z,97958.72
2022-08-25T03:10:41.722Z,97967.78
2022-08-25T03:13:46.051Z,97955.66
2022-08-25T03:16:49.866Z,97959.59
2022-08-25T03:19:55.126Z,97950.31
2022-08-25T03:22:59.148Z,97963.16
2022-08-25T03:26:22.573Z,97956.22
2022-08-25T03:29:29.613Z,97955.66
2022-08-25T03:32:34.871Z,97952.59
2022-08-25T03:35:39.368Z,97961.34
2022-08-25T03:38:43.961Z,97955.59
2022-08-25T03:41:50.343Z,97959.97
2022-08-25T03:44:55.166Z,97958.44
2022-08-25T03:48:00.195Z,97948.19
2022-08-25T03:51:05.670Z,97953.22
2022-08-25T03:54:12.306Z,97947.19
2022-08-25T03:57:18.104Z,97955.41
2022-08-25T04:00:24.085Z,97955.81
2022-08-25T04:03:29.908Z,97960.22
2022-08-25T04:06:34.396Z,97958.00
2022-08-25T04:09:38.533Z,97954.38
2022-08-25T04:12:43.847Z,97966.88
2022-08-25T04:15:48.578Z,97971.94
2022-08-25T04:18:55.110Z,97962.56
2022-08-25T04:21:59.992Z,97963.78
2022-08-25T04:25:04.118Z,97960.50
2022-08-25T04:28:10.306Z,97968.63
2022-08-25T04:31:16.645Z,97966.22
2022-08-25T04:34:30.231Z,97961.41
2022-08-25T04:37:36.349Z,97954.94
2022-08-25T04:40:40.381Z,97958.16
2022-08-25T04:43:46.214Z,97963.91
2022-08-25T04:46:51.272Z,97968.47
2022-08-25T04:49:55.349Z,97957.91
2022-08-25T04:53:00.114Z,97961.88
2022-08-25T04:56:07.734Z,97959.97
2022-08-25T04:59:15.326Z,97963.59
2022-08-25T05:02:24.956Z,97970.38
2022-08-25T05:05:30.766Z,97965.16
2022-08-25T05:08:35.562Z,97963.06
2022-08-25T05:11:40.470Z,97959.63
2022-08-25T05:14:46.303Z,97959.84
2022-08-25T05:17:55.671Z,97961.09
2022-08-25T05:21:04.255Z,97958.84
2022-08-25T05:24:09.205Z,97963.63
2022-08-25T05:27:13.573Z,97965.84
2022-08-25T05:30:35.754Z,97967.56
2022-08-25T05:33:41.877Z,97964.66
2022-08-25T05:36:51.865Z,97968.22
2022-08-25T05:39:55.746Z,97977.16
2022-08-25T05:43:00.711Z,97977.38
2022-08-25T05:46:06.625Z,97972.78
2022-08-25T05:49:14.365Z,97983.63
2022-08-25T05:52:20.184Z,97972.16
2022-08-25T05:55:24.940Z,97979.81
2022-08-25T05:58:30.090Z,97973.50
2022-08-25T06:01:53.274Z,97970.66
2022-08-25T06:04:58.457Z,97974.91
2022-08-25T06:08:02.751Z,97980.91
2022-08-25T06:11:07.483Z,97969.78
2022-08-25T06:14:13.613Z,97975.63
2022-08-25T06:17:22.839Z,97965.50
2022-08-25T06:20:29.512Z,97974.81
2022-08-25T06:24:15.370Z,97965.47
2022-08-25T06:28:11.651Z,97968.50
2022-08-25T06:31:16.418Z,97961.78
2022-08-25T06:34:47.951Z,97974.22
2022-08-25T06:37:51.647Z,97980.25
2022-08-25T06:41:21.143Z,97971.13
2022-08-25T06:44:51.326Z,97979.66
2022-08-25T06:47:55.517Z,97974.03
2022-08-25T06:51:02.630Z,97975.25
2022-08-25T06:54:08.399Z,97978.88
2022-08-25T06:57:14.138Z,97968.28
2022-08-25T07:00:19.129Z,97978.75
2022-08-25T07:03:35.441Z,97974.59
2022-08-25T07:06:52.928Z,97978.97
2022-08-25T07:09:57.274Z,97981.59
2022-08-25T07:13:01.835Z,97979.53
2022-08-25T07:16:07.279Z,97965.59
2022-08-25T07:19:14.662Z,97972.97
2022-08-25T07:22:21.663Z,97972.41
2022-08-25T07:25:26.632Z,97966.94
2022-08-25T07:28:30.543Z,97969.91
2022-08-25T07:31:35.192Z,97967.56
2022-08-25T07:34:56.640Z,97977.97
2022-08-25T07:38:03.103Z,97968.91
2022-08-25T07:41:07.914Z,97968.13
2022-08-25T07:44:13.866Z,97960.78
2022-08-25T07:47:20.360Z,97968.75
2022-08-25T07:50:28.319Z,97974.97
2022-08-25T07:53:53.424Z,97977.31
2022-08-25T07:56:57.626Z,97974.69
2022-08-25T08:00:01.209Z,97974.91
2022-08-25T08:03:35.255Z,97969.19
2022-08-25T08:06:40.932Z,97972.41
2022-08-25T08:09:56.068Z,97967.66
2022-08-25T08:13:07.129Z,97972.06
2022-08-25T08:16:14.604Z,97973.13
2022-08-25T08:19:18.569Z,97975.22
2022-08-25T08:22:29.581Z,97968.09
2022-08-25T08:25:37.421Z,97963.50
2022-08-25T08:28:43.113Z,97958.59
2022-08-25T08:31:48.712Z,97959.53
2022-08-25T08:34:54.457Z,97960.69
2022-08-25T08:38:00.648Z,97966.88
2022-08-25T08:41:40.115Z,97969.53
2022-08-25T08:45:10.486Z,97958.13
2022-08-25T08:48:42.206Z,97969.63
2022-08-25T08:51:56.962Z,97962.16
2022-08-25T08:55:09.161Z,97958.38
2022-08-25T08:58:21.126Z,97952.41
2022-08-25T09:01:39.661Z,97951.97
2022-08-25T09:04:47.967Z,97946.91
2022-08-25T09:07:57.347Z,97945.25
2022-08-25T09:11:10.497Z,97947.81
2022-08-25T09:14:40.350Z,97940.41
2022-08-25T09:18:08.666Z,97944.03
2022-08-25T09:21:34.161Z,97940.25
2022-08-25T09:24:53.539Z,97943.44
2022-08-25T09:28:07.617Z,97937.41
2022-08-25T09:31:21.110Z,97943.56
2022-08-25T09:34:34.333Z,97934.94
2022-08-25T09:37:38.089Z,97939.84
2022-08-25T09:40:45.375Z,97928.75
2022-08-25T09:44:02.542Z,97922.94
2022-08-25T09:47:23.989Z,97924.59
2022-08-25T09:50:34.860Z,97924.28
2022-08-25T09:53:50.543Z,97925.47
2022-08-25T09:56:59.045Z,97923.97
2022-08-25T10:00:18.359Z,97921.53
2022-08-25T10:03:25.301Z,97923.63
2022-08-25T10:06:37.888Z,97921.53
2022-08-25T10:09:43.863Z,97917.94
2022-08-25T10:12:51.731Z,97916.06
2022-08-25T10:16:20.360Z,97915.28
2022-08-25T10:19:33.702Z,97914.16
2022-08-25T10:22:40.924Z,97914.91
2022-08-25T10:25:57.604Z,97913.19
2022-08-25T10:29:13.408Z,97903.09
2022-08-25T10:32:23.328Z,97912.22
2022-08-25T10:35:52.368Z,97905.34
2022-08-25T10:39:01.629Z,97890.13
2022-08-25T10:42:25.826Z,97893.16
2022-08-25T10:45:47.050Z,97894.84
2022-08-25T10:49:06.110Z,97888.16
2022-08-25T10:52:21.670Z,97886.75
2022-08-25T10:55:32.300Z,97886.03
2022-08-25T10:58:59.901Z,97880.88
2022-08-25T11:02:38.428Z,97877.09
2022-08-25T11:05:52.626Z,97878.56
2022-08-25T11:09:05.414Z,97868.63
2022-08-25T11:12:15.346Z,97874.53
2022-08-25T11:15:26.419Z,97869.34
2022-08-25T11:18:33.466Z,97867.44
2022-08-25T11:21:49.123Z,97868.66
2022-08-25T11:25:04.901Z,97855.25
2022-08-25T11:28:14.822Z,97861.97
2022-08-25T11:31:52.772Z,97856.22
2022-08-25T11:35:04.328Z,97850.81
2022-08-25T11:38:26.600Z,97847.91
2022-08-25T11:41:42.623Z,97837.44
2022-08-25T11:44:57.600Z,97829.00
2022-08-25T11:48:19.452Z,97824.75
2022-08-25T11:51:36.532Z,97831.34
2022-08-25T11:54:46.088Z,97838.66
2022-08-25T11:58:25.286Z,97831.72
2022-08-25T12:02:07.070Z,97824.78
2022-08-25T12:05:34.247Z,97826.09
2022-08-25T12:08:57.718Z,97825.34
2022-08-25T12:12:30.484Z,97819.06
2022-08-25T12:15:55.997Z,97820.09
2022-08-25T12:19:26.086Z,97807.72
2022-08-25T12:22:57.427Z,97808.13
2022-08-25T12:26:11.009Z,97802.13
2022-08-25T12:29:22.584Z,97810.34
2022-08-25T12:32:50.566Z,97809.31
2022-08-25T12:36:04.160Z,97817.81
2022-08-25T12:39:24.342Z,97810.88
2022-08-25T12:42:39.078Z,97812.09
2022-08-25T12:45:48.150Z,97810.16
2022-08-25T12:48:58.449Z,97803.56
2022-08-25T12:52:29.659Z,97807.84
2022-08-25T12:55:35.294Z,97795.44
2022-08-25T12:59:00.089Z,97792.91
2022-08-25T13:02:51.638Z,97790.50
2022-08-25T13:07:07.225Z,97794.72
2022-08-25T13:10:26.934Z,97793.84
2022-08-25T13:13:47.014Z,97784.00
2022-08-25T13:16:55.457Z,97774.44
2022-08-25T13:20:13.999Z,97773.69
2022-08-25T13:23:22.933Z,97777.25
2022-08-25T13:26:30.517Z,97779.19
2022-08-25T13:29:40.966Z,97771.06
2022-08-25T13:32:45.578Z,97774.22
2022-08-25T13:39:56.709Z,97770.66
2022-08-25T13:43:05.625Z,97761.03
2022-08-25T13:46:13.191Z,97760.88
2022-08-25T13:49:29.718Z,97759.84
2022-08-25T13:52:33.910Z,97753.66
2022-08-25T13:55:51.745Z,97745.56
2022-08-25T13:58:57.390Z,97753.56
2022-08-25T14:02:03.947Z,97749.28
2022-08-25T14:05:14.603Z,97739.06
2022-08-25T14:08:35.375Z,97749.84
2022-08-25T14:11:48.454Z,97752.03
2022-08-25T14:15:00.245Z,97751.78
2022-08-25T14:18:08.916Z,97744.94
2022-08-25T14:21:14.880Z,97743.97
2022-08-25T14:24:22.605Z,97744.16
2022-08-25T14:27:26.270Z,97748.94
2022-08-25T14:30:30.376Z,97756.19
2022-08-25T14:33:40.743Z,97754.97
2022-08-25T14:36:46.045Z,97752.97
2022-08-25T14:39:52.021Z,97748.59
2022-08-25T14:42:59.878Z,97749.28
2022-08-25T14:46:15.580Z,97749.81
2022-08-25T14:49:30.307Z,97755.38
2022-08-25T14:52:35.575Z,97740.38
2022-08-25T14:55:41.796Z,97738.34
2022-08-25T14:59:13.074Z,97728.25
2022-08-25T15:02:20.985Z,97726.47
2022-08-25T15:05:29.161Z,97719.22
2022-08-25T15:08:51.553Z,97725.94
2022-08-25T15:11:59.225Z,97720.81
2022-08-25T15:15:04.466Z,97720.09
2022-08-25T15:18:10.618Z,97723.38
2022-08-25T15:21:19.408Z,97714.53
2022-08-25T15:24:25.700Z,97723.19
2022-08-25T15:27:30.838Z,97721.88
2022-08-25T15:30:35.195Z,97716.72
2022-08-25T15:37:49.740Z,97716.81
2022-08-25T15:40:54.122Z,97716.94
2022-08-25T15:44:03.065Z,97714.75
2022-08-25T15:47:08.460Z,97709.78
2022-08-25T15:50:20.274Z,97703.66
2022-08-25T15:53:32.101Z,97704.56
2022-08-25T15:56:36.985Z,97701.59
2022-08-25T15:59:41.726Z,97699.47
2022-08-25T16:02:46.296Z,97694.75
2022-08-25T16:05:51.315Z,97706.09
2022-08-25T16:08:57.865Z,97698.84
2022-08-25T16:12:06.682Z,97704.28
2022-08-25T16:15:13.239Z,97711.56
2022-08-25T16:18:17.581Z,97703.69
2022-08-25T16:21:29.162Z,97705.22
2022-08-25T16:24:38.595Z,97708.13
2022-08-25T16:27:44.431Z,97700.50
2022-08-25T16:30:56.271Z,97697.28
2022-08-25T16:34:01.669Z,97705.44
2022-08-25T16:37:06.535Z,97708.00
2022-08-25T16:40:15.180Z,97702.69
2022-08-25T16:43:22.238Z,97707.66
2022-08-25T16:46:25.954Z,97712.03
2022-08-25T16:49:31.235Z,97710.09
2022-08-25T16:52:53.682Z,97714.69
2022-08-25T16:56:05.079Z,97722.09
2022-08-25T16:59:13.321Z,97722.88
2022-08-25T17:02:22.332Z,97716.22
2022-08-25T17:05:28.589Z,97718.16
2022-08-25T17:08:33.132Z,97728.59
2022-08-25T17:11:46.530Z,97728.03
2022-08-25T17:14:51.453Z,97717.22
2022-08-25T17:17:56.077Z,97719.34
2022-08-25T17:21:02.311Z,97721.06
2022-08-25T17:24:09.409Z,97719.75
2022-08-25T17:27:18.540Z,97727.38
2022-08-25T17:30:22.507Z,97722.06
2022-08-25T17:33:28.043Z,97709.91
2022-08-25T17:36:32.327Z,97715.03
2022-08-25T17:39:40.539Z,97717.88
2022-08-25T17:42:54.316Z,97714.28
2022-08-25T17:46:00.741Z,97716.94
2022-08-25T17:49:08.629Z,97723.25
2022-08-25T17:52:13.356Z,97724.50
2022-08-25T17:55:21.664Z,97728.69
2022-08-25T17:58:29.517Z,97738.72
2022-08-25T18:05:58.802Z,97741.56
2022-08-25T18:09:05.951Z,97745.06
2022-08-25T18:12:12.953Z,97736.03
2022-08-25T18:15:24.477Z,97743.25
2022-08-25T18:18:30.276Z,97743.03
2022-08-25T18:21:35.319Z,97742.28
2022-08-25T18:24:41.159Z,97747.97
2022-08-25T18:27:47.764Z,97744.13
2022-08-25T18:31:03.104Z,97746.81
2022-08-25T18:34:10.826Z,97747.66
2022-08-25T18:38:04.661Z,97760.25
2022-08-25T18:41:31.514Z,97761.03
2022-08-25T18:44:51.106Z,97755.19
2022-08-25T18:50:21.499Z,97752.84
2022-08-25T18:53:49.524Z,97749.25
2022-08-25T18:56:54.867Z,97760.06
2022-08-25T18:59:58.842Z,97756.19
2022-08-25T19:03:04.031Z,97758.91
2022-08-25T19:06:09.034Z,97760.69
2022-08-25T19:09:14.525Z,97761.38
2022-08-25T19:12:22.688Z,97765.56
2022-08-25T19:15:27.859Z,97770.41
2022-08-25T19:18:33.144Z,97766.41
2022-08-25T19:21:43.183Z,97768.16
2022-08-25T19:24:49.322Z,97763.28
2022-08-25T19:27:54.886Z,97763.84
2022-08-25T19:31:00.545Z,97763.97
2022-08-25T19:34:13.719Z,97760.50
2022-08-25T19:37:20.476Z,97761.28
2022-08-25T19:40:30.092Z,97765.59
2022-08-25T19:43:55.469Z,97767.63
2022-08-25T19:47:02.093Z,97762.03
2022-08-25T19:50:06.874Z,97750.19
2022-08-25T19:53:12.335Z,97761.03
2022-08-25T19:56:20.205Z,97769.78
2022-08-25T19:59:25.920Z,97764.22
2022-08-25T20:02:31.829Z,97770.47
2022-08-25T20:05:39.321Z,97765.22
2022-08-25T20:08:44.783Z,97771.97
2022-08-25T20:11:51.415Z,97771.69
2022-08-25T20:14:59.756Z,97767.31
2022-08-25T20:18:03.588Z,97774.88
2022-08-25T20:21:09.972Z,97762.25
2022-08-25T20:24:31.405Z,97764.88
2022-08-25T20:27:42.674Z,97758.31
2022-08-25T20:30:46.883Z,97763.63
2022-08-25T20:33:51.180Z,97757.59
2022-08-25T20:36:56.612Z,97757.94
2022-08-25T20:40:01.055Z,97758.94
2022-08-25T20:43:10.356Z,97746.47
2022-08-25T20:46:16.589Z,97756.81
2022-08-25T20:49:25.220Z,97747.00
2022-08-25T20:52:30.602Z,97753.66
2022-08-25T20:55:39.199Z,97752.81
2022-08-25T20:58:50.133Z,97762.09
2022-08-25T21:01:54.478Z,97755.88
2022-08-25T21:04:58.597Z,97752.91
2022-08-25T21:08:02.580Z,97755.09
2022-08-25T21:11:08.531Z,97758.22
2022-08-25T21:14:15.562Z,97756.59
2022-08-25T21:17:20.646Z,97748.06
2022-08-25T21:20:25.837Z,97752.94
2022-08-25T21:23:30.561Z,97752.94
2022-08-25T21:26:34.563Z,97750.00
2022-08-25T21:29:44.648Z,97747.94
2022-08-25T21:32:58.490Z,97746.88
2022-08-25T21:36:02.843Z,97743.56
2022-08-25T21:39:07.527Z,97742.53
2022-08-25T21:45:22.579Z,97752.00
2022-08-25T21:48:27.490Z,97752.97
2022-08-25T21:51:35.104Z,97757.47
2022-08-25T21:54:44.963Z,97751.03
2022-08-25T21:57:49.815Z,97748.28
2022-08-25T22:00:57.313Z,97752.50
2022-08-25T22:04:02.337Z,97752.31
2022-08-25T22:07:06.411Z,97746.31
2022-08-25T22:10:12.820Z,97739.66
2022-08-25T22:13:21.074Z,97742.06
2022-08-25T22:16:27.352Z,97743.16
2022-08-25T22:19:35.689Z,97736.47
2022-08-25T22:22:39.939Z,97742.94
2022-08-25T22:25:44.442Z,97735.72
2022-08-25T22:28:51.496Z,97726.25
2022-08-25T22:32:02.388Z,97738.31
2022-08-25T22:35:07.465Z,97734.66
2022-08-25T22:38:14.729Z,97739.53
2022-08-25T22:41:22.547Z,97729.41
2022-08-25T22:44:27.574Z,97733.84
2022-08-25T22:47:36.021Z,97723.94
2022-08-25T22:50:40.983Z,97728.13
2022-08-25T22:53:46.965Z,97732.69
2022-08-25T22:56:51.252Z,97716.09
2022-08-25T22:59:56.738Z,97723.16
2022-08-25T23:03:04.015Z,97719.13
2022-08-25T23:06:14.676Z,97720.03
2022-08-25T23:09:19.033Z,97715.56
2022-08-25T23:12:23.828Z,97713.59
2022-08-25T23:15:28.719Z,97726.34
2022-08-25T23:18:34.231Z,97720.88
2022-08-25T23:21:57.481Z,97711.19
2022-08-25T23:25:01.459Z,97714.03
2022-08-25T23:28:08.011Z,97717.72
2022-08-25T23:31:16.252Z,97703.66
2022-08-25T23:34:22.815Z,97704.09
2022-08-25T23:37:26.745Z,97699.22
2022-08-25T23:40:30.649Z,97699.13
2022-08-25T23:43:37.055Z,97702.75
2022-08-25T23:46:43.442Z,97701.38
2022-08-25T23:49:50.253Z,97706.59
2022-08-25T23:52:54.275Z,97696.59
2022-08-25T23:55:59.914Z,97700.38
2022-08-25T23:59:06.921Z,97696.53
